Current | Radar | Forecast | Satellite
Updated: 10:53 PM EDT on March 28, 2017
Observed at Newport, Rhode Island
Temperature 39°F
Windchill 33°F
Humidity 100%
Dew Point 39°F
Wind North at 9 mph
Pressure 29.92 in (Falling)
Conditions Rain
Visibility 4.0 miles
UV 0 out of 16
Clouds Mostly Cloudy (BKN) : 500 ft
Overcast (OVC) : 1000 ft
Yesterday's Maximum 48°F
Yesterday's Minimum 36°F
Yesterday's Heating Degree Days 23
Sunrise6:35 AM EDT
Sunset7:07 PM EDT
Moon Rise7:07 AM EDT
Moon Set7:56 PM EDT
Moon PhaseMoon Phase
New Moon
Raw METARMETAR KUUU 290253Z AUTO 36008KT 4SM RA BR BKN005 OVC010 04/04 A2991 RMK AO2 RAE0154B14 SLP130 P0005 60009 T00390039 58001

Kingston, RI

Current Radar

Radar Map
Zoom into radar image
Zoom into animated radar image


Click here for Marine Information
Scientific forecaster discussion (NWS)

Units: English | Metric

Find the Weather for any City, State or Zipcode, or Country:

U.S. State List | Severe Weather | Tropical Storms | Ski Conditions
United States | Canada | Central America | South America | Asia | Europe | Australia | Africa | Islands

Weather Underground

© Copyright 2017
The Weather Company, LLC